sensor_id;sensor_type;location;lat;lon;timestamp;P1;durP1;ratioP1;P2;durP2;ratioP2
22628;SDS011;11481;53.694;9.910;2024-01-15T00:02:03;6.50;;;1.45;;
22628;SDS011;11481;53.694;9.910;2024-01-15T00:04:30;10.50;;;1.10;;
22628;SDS011;11481;53.694;9.910;2024-01-15T00:06:57;6.63;;;1.13;;
22628;SDS011;11481;53.694;9.910;2024-01-15T00:09:24;9.50;;;1.38;;
22628;SDS011;11481;53.694;9.910;2024-01-15T00:11:50;4.50;;;1.10;;
22628;SDS011;11481;53.694;9.910;2024-01-15T00:14:17;9.43;;;1.48;;
22628;SDS011;11481;53.694;9.910;2024-01-15T00:16:46;10.35;;;1.70;;
22628;SDS011;11481;53.694;9.910;2024-01-15T00:19:15;9.88;;;1.63;;
22628;SDS011;11481;53.694;9.910;2024-01-15T00:21:42;8.43;;;1.63;;
22628;SDS011;11481;53.694;9.910;2024-01-15T00:24:10;15.52;;;2.38;;
22628;SDS011;11481;53.694;9.910;2024-01-15T00:26:36;8.10;;;1.80;;
22628;SDS011;11481;53.694;9.910;2024-01-15T00:29:03;8.70;;;1.55;;
22628;SDS011;11481;53.694;9.910;2024-01-15T00:31:30;13.32;;;1.92;;
22628;SDS011;11481;53.694;9.910;2024-01-15T00:33:57;9.30;;;1.60;;
22628;SDS011;11481;53.694;9.910;2024-01-15T00:36:24;7.68;;;1.27;;
22628;SDS011;11481;53.694;9.910;2024-01-15T00:38:51;9.27;;;1.70;;
22628;SDS011;11481;53.694;9.910;2024-01-15T00:41:18;6.45;;;1.45;;
22628;SDS011;11481;53.694;9.910;2024-01-15T00:43:45;12.77;;;2.08;;
22628;SDS011;11481;53.694;9.910;2024-01-15T00:46:12;8.45;;;1.83;;
22628;SDS011;11481;53.694;9.910;2024-01-15T00:48:39;8.52;;;1.92;;
22628;SDS011;11481;53.694;9.910;2024-01-15T00:51:06;14.20;;;2.10;;
22628;SDS011;11481;53.694;9.910;2024-01-15T00:53:33;11.15;;;1.63;;
22628;SDS011;11481;53.694;9.910;2024-01-15T00:56:00;13.77;;;2.58;;
22628;SDS011;11481;53.694;9.910;2024-01-15T00:58:26;10.52;;;1.92;;
22628;SDS011;11481;53.694;9.910;2024-01-15T01:00:53;10.75;;;2.38;;
22628;SDS011;11481;53.694;9.910;2024-01-15T01:03:20;11.48;;;1.50;;
22628;SDS011;11481;53.694;9.910;2024-01-15T01:05:50;12.45;;;2.15;;
22628;SDS011;11481;53.694;9.910;2024-01-15T01:08:17;11.48;;;2.00;;
22628;SDS011;11481;53.694;9.910;2024-01-15T01:10:43;8.40;;;1.73;;
22628;SDS011;11481;53.694;9.910;2024-01-15T01:13:10;10.18;;;1.77;;
22628;SDS011;11481;53.694;9.910;2024-01-15T01:15:37;12.55;;;2.15;;
22628;SDS011;11481;53.694;9.910;2024-01-15T01:18:05;9.90;;;1.63;;
22628;SDS011;11481;53.694;9.910;2024-01-15T01:20:32;20.23;;;1.52;;
22628;SDS011;11481;53.694;9.910;2024-01-15T01:22:59;10.45;;;1.77;;
22628;SDS011;11481;53.694;9.910;2024-01-15T01:25:26;15.23;;;1.40;;
22628;SDS011;11481;53.694;9.910;2024-01-15T01:27:53;9.35;;;1.50;;
22628;SDS011;11481;53.694;9.910;2024-01-15T01:30:20;5.68;;;1.52;;
22628;SDS011;11481;53.694;9.910;2024-01-15T01:32:47;9.75;;;1.35;;
22628;SDS011;11481;53.694;9.910;2024-01-15T01:35:13;17.88;;;1.98;;
22628;SDS011;11481;53.694;9.910;2024-01-15T01:37:40;9.57;;;1.90;;
22628;SDS011;11481;53.694;9.910;2024-01-15T01:40:07;10.35;;;1.50;;
22628;SDS011;11481;53.694;9.910;2024-01-15T01:42:34;10.30;;;1.65;;
22628;SDS011;11481;53.694;9.910;2024-01-15T01:45:01;9.70;;;1.42;;
22628;SDS011;11481;53.694;9.910;2024-01-15T01:47:28;8.95;;;1.63;;
22628;SDS011;11481;53.694;9.910;2024-01-15T01:49:55;9.65;;;1.20;;
22628;SDS011;11481;53.694;9.910;2024-01-15T01:52:22;9.68;;;1.42;;
22628;SDS011;11481;53.694;9.910;2024-01-15T01:54:49;14.57;;;1.15;;
22628;SDS011;11481;53.694;9.910;2024-01-15T01:57:17;9.15;;;1.40;;
22628;SDS011;11481;53.694;9.910;2024-01-15T01:59:45;15.75;;;1.70;;
22628;SDS011;11481;53.694;9.910;2024-01-15T02:02:13;12.45;;;1.52;;
22628;SDS011;11481;53.694;9.910;2024-01-15T02:04:40;7.45;;;1.08;;
22628;SDS011;11481;53.694;9.910;2024-01-15T02:07:07;11.90;;;1.52;;
22628;SDS011;11481;53.694;9.910;2024-01-15T02:09:34;9.57;;;1.33;;
22628;SDS011;11481;53.694;9.910;2024-01-15T02:12:00;17.98;;;1.52;;
22628;SDS011;11481;53.694;9.910;2024-01-15T02:14:27;9.77;;;0.90;;
22628;SDS011;11481;53.694;9.910;2024-01-15T02:16:54;12.30;;;1.20;;
22628;SDS011;11481;53.694;9.910;2024-01-15T02:19:21;15.32;;;1.60;;
22628;SDS011;11481;53.694;9.910;2024-01-15T02:21:48;4.65;;;0.98;;
22628;SDS011;11481;53.694;9.910;2024-01-15T02:24:15;12.15;;;1.52;;
22628;SDS011;11481;53.694;9.910;2024-01-15T02:26:42;7.25;;;1.23;;
22628;SDS011;11481;53.694;9.910;2024-01-15T02:29:08;10.02;;;1.85;;
22628;SDS011;11481;53.694;9.910;2024-01-15T02:31:36;12.95;;;1.45;;
22628;SDS011;11481;53.694;9.910;2024-01-15T02:34:04;11.10;;;1.40;;
22628;SDS011;11481;53.694;9.910;2024-01-15T02:36:31;8.80;;;2.00;;
22628;SDS011;11481;53.694;9.910;2024-01-15T02:38:58;8.63;;;1.33;;
22628;SDS011;11481;53.694;9.910;2024-01-15T02:41:24;17.15;;;1.75;;
22628;SDS011;11481;53.694;9.910;2024-01-15T02:43:51;11.93;;;1.30;;
22628;SDS011;11481;53.694;9.910;2024-01-15T02:46:17;11.98;;;1.42;;
22628;SDS011;11481;53.694;9.910;2024-01-15T02:48:44;9.82;;;1.77;;
22628;SDS011;11481;53.694;9.910;2024-01-15T02:51:11;7.30;;;1.50;;
22628;SDS011;11481;53.694;9.910;2024-01-15T02:53:38;7.43;;;1.17;;
22628;SDS011;11481;53.694;9.910;2024-01-15T02:56:06;8.00;;;1.75;;
22628;SDS011;11481;53.694;9.910;2024-01-15T02:58:33;8.23;;;1.70;;
22628;SDS011;11481;53.694;9.910;2024-01-15T03:01:00;9.63;;;1.55;;
22628;SDS011;11481;53.694;9.910;2024-01-15T03:03:27;15.00;;;1.88;;
22628;SDS011;11481;53.694;9.910;2024-01-15T03:05:54;12.25;;;1.70;;
22628;SDS011;11481;53.694;9.910;2024-01-15T03:08:21;16.85;;;1.92;;
22628;SDS011;11481;53.694;9.910;2024-01-15T03:10:49;17.63;;;2.95;;
22628;SDS011;11481;53.694;9.910;2024-01-15T03:13:15;17.15;;;2.03;;
22628;SDS011;11481;53.694;9.910;2024-01-15T03:15:42;16.52;;;1.73;;
22628;SDS011;11481;53.694;9.910;2024-01-15T03:18:09;13.48;;;1.60;;
22628;SDS011;11481;53.694;9.910;2024-01-15T03:20:36;10.45;;;1.67;;
22628;SDS011;11481;53.694;9.910;2024-01-15T03:23:03;12.63;;;1.83;;
22628;SDS011;11481;53.694;9.910;2024-01-15T03:25:30;6.75;;;2.00;;
22628;SDS011;11481;53.694;9.910;2024-01-15T03:27:57;16.15;;;2.20;;
22628;SDS011;11481;53.694;9.910;2024-01-15T03:30:24;14.18;;;1.80;;
22628;SDS011;11481;53.694;9.910;2024-01-15T03:32:51;10.18;;;1.25;;
22628;SDS011;11481;53.694;9.910;2024-01-15T03:35:17;11.30;;;1.52;;
22628;SDS011;11481;53.694;9.910;2024-01-15T03:37:44;15.52;;;1.83;;
22628;SDS011;11481;53.694;9.910;2024-01-15T03:40:11;17.60;;;2.17;;
22628;SDS011;11481;53.694;9.910;2024-01-15T03:42:39;14.48;;;1.83;;
22628;SDS011;11481;53.694;9.910;2024-01-15T03:45:05;15.95;;;2.72;;
22628;SDS011;11481;53.694;9.910;2024-01-15T03:47:33;11.43;;;1.65;;
22628;SDS011;11481;53.694;9.910;2024-01-15T03:50:00;15.13;;;1.88;;
22628;SDS011;11481;53.694;9.910;2024-01-15T03:52:26;14.88;;;1.55;;
22628;SDS011;11481;53.694;9.910;2024-01-15T03:54:53;16.50;;;2.13;;
22628;SDS011;11481;53.694;9.910;2024-01-15T03:57:20;23.30;;;2.40;;
22628;SDS011;11481;53.694;9.910;2024-01-15T03:59:47;12.80;;;1.55;;
22628;SDS011;11481;53.694;9.910;2024-01-15T04:02:13;22.08;;;1.85;;
22628;SDS011;11481;53.694;9.910;2024-01-15T04:04:41;9.02;;;1.20;;
22628;SDS011;11481;53.694;9.910;2024-01-15T04:07:09;10.18;;;1.63;;
22628;SDS011;11481;53.694;9.910;2024-01-15T04:09:37;11.10;;;2.20;;
22628;SDS011;11481;53.694;9.910;2024-01-15T04:12:04;12.15;;;1.73;;
22628;SDS011;11481;53.694;9.910;2024-01-15T04:14:31;13.38;;;1.75;;
22628;SDS011;11481;53.694;9.910;2024-01-15T04:16:58;8.45;;;1.80;;
22628;SDS011;11481;53.694;9.910;2024-01-15T04:19:25;14.90;;;2.42;;
22628;SDS011;11481;53.694;9.910;2024-01-15T04:21:51;22.17;;;2.10;;
22628;SDS011;11481;53.694;9.910;2024-01-15T04:24:18;11.68;;;1.63;;
22628;SDS011;11481;53.694;9.910;2024-01-15T04:26:45;16.17;;;1.80;;
22628;SDS011;11481;53.694;9.910;2024-01-15T04:29:13;19.45;;;2.08;;
22628;SDS011;11481;53.694;9.910;2024-01-15T04:31:39;19.30;;;2.40;;
22628;SDS011;11481;53.694;9.910;2024-01-15T04:34:06;27.13;;;3.25;;
22628;SDS011;11481;53.694;9.910;2024-01-15T04:36:38;17.52;;;2.75;;
22628;SDS011;11481;53.694;9.910;2024-01-15T04:39:08;9.90;;;1.95;;
22628;SDS011;11481;53.694;9.910;2024-01-15T04:41:35;14.18;;;2.08;;
22628;SDS011;11481;53.694;9.910;2024-01-15T04:44:01;11.88;;;2.70;;
22628;SDS011;11481;53.694;9.910;2024-01-15T04:46:28;10.25;;;2.05;;
22628;SDS011;11481;53.694;9.910;2024-01-15T04:48:55;17.45;;;2.28;;
22628;SDS011;11481;53.694;9.910;2024-01-15T04:51:22;14.23;;;2.55;;
22628;SDS011;11481;53.694;9.910;2024-01-15T04:53:49;16.58;;;2.78;;
22628;SDS011;11481;53.694;9.910;2024-01-15T04:56:16;25.75;;;2.58;;
22628;SDS011;11481;53.694;9.910;2024-01-15T04:58:43;24.67;;;2.50;;
22628;SDS011;11481;53.694;9.910;2024-01-15T05:01:09;22.10;;;2.85;;
22628;SDS011;11481;53.694;9.910;2024-01-15T05:03:36;22.13;;;2.58;;
22628;SDS011;11481;53.694;9.910;2024-01-15T05:06:03;19.27;;;2.80;;
22628;SDS011;11481;53.694;9.910;2024-01-15T05:08:30;18.70;;;2.53;;
22628;SDS011;11481;53.694;9.910;2024-01-15T05:10:58;18.67;;;2.55;;
22628;SDS011;11481;53.694;9.910;2024-01-15T05:13:25;19.17;;;3.03;;
22628;SDS011;11481;53.694;9.910;2024-01-15T05:15:52;27.17;;;3.47;;
22628;SDS011;11481;53.694;9.910;2024-01-15T05:18:18;8.68;;;2.15;;
22628;SDS011;11481;53.694;9.910;2024-01-15T05:20:46;29.80;;;3.70;;
22628;SDS011;11481;53.694;9.910;2024-01-15T05:23:12;26.08;;;2.75;;
22628;SDS011;11481;53.694;9.910;2024-01-15T05:25:39;22.85;;;3.05;;
22628;SDS011;11481;53.694;9.910;2024-01-15T05:28:06;14.25;;;2.63;;
22628;SDS011;11481;53.694;9.910;2024-01-15T05:30:33;17.55;;;3.05;;
22628;SDS011;11481;53.694;9.910;2024-01-15T05:33:00;23.23;;;2.45;;
22628;SDS011;11481;53.694;9.910;2024-01-15T05:35:27;20.00;;;3.03;;
22628;SDS011;11481;53.694;9.910;2024-01-15T05:37:54;16.42;;;2.17;;
22628;SDS011;11481;53.694;9.910;2024-01-15T05:40:21;22.27;;;2.63;;
22628;SDS011;11481;53.694;9.910;2024-01-15T05:42:47;13.65;;;2.50;;
22628;SDS011;11481;53.694;9.910;2024-01-15T05:45:14;27.35;;;3.15;;
22628;SDS011;11481;53.694;9.910;2024-01-15T05:47:41;16.88;;;2.60;;
22628;SDS011;11481;53.694;9.910;2024-01-15T05:50:08;17.33;;;2.53;;
22628;SDS011;11481;53.694;9.910;2024-01-15T05:52:35;18.38;;;2.67;;
22628;SDS011;11481;53.694;9.910;2024-01-15T05:55:02;17.30;;;1.70;;
22628;SDS011;11481;53.694;9.910;2024-01-15T05:57:29;19.60;;;1.95;;
22628;SDS011;11481;53.694;9.910;2024-01-15T05:59:56;15.55;;;2.55;;
22628;SDS011;11481;53.694;9.910;2024-01-15T06:02:23;12.73;;;2.65;;
22628;SDS011;11481;53.694;9.910;2024-01-15T06:04:50;15.55;;;1.90;;
22628;SDS011;11481;53.694;9.910;2024-01-15T06:07:17;11.05;;;2.67;;
22628;SDS011;11481;53.694;9.910;2024-01-15T06:09:44;16.80;;;2.72;;
22628;SDS011;11481;53.694;9.910;2024-01-15T06:12:11;22.35;;;2.47;;
22628;SDS011;11481;53.694;9.910;2024-01-15T06:14:38;10.85;;;2.20;;
22628;SDS011;11481;53.694;9.910;2024-01-15T06:17:05;12.15;;;2.17;;
22628;SDS011;11481;53.694;9.910;2024-01-15T06:19:32;11.25;;;1.90;;
22628;SDS011;11481;53.694;9.910;2024-01-15T06:22:00;13.07;;;1.63;;
22628;SDS011;11481;53.694;9.910;2024-01-15T06:24:27;11.45;;;1.48;;
22628;SDS011;11481;53.694;9.910;2024-01-15T06:26:53;11.70;;;1.50;;
22628;SDS011;11481;53.694;9.910;2024-01-15T06:29:20;12.13;;;1.45;;
22628;SDS011;11481;53.694;9.910;2024-01-15T06:31:47;7.28;;;0.88;;
22628;SDS011;11481;53.694;9.910;2024-01-15T06:34:15;5.90;;;1.15;;
22628;SDS011;11481;53.694;9.910;2024-01-15T06:36:42;5.78;;;1.08;;
22628;SDS011;11481;53.694;9.910;2024-01-15T06:39:09;7.95;;;0.98;;
22628;SDS011;11481;53.694;9.910;2024-01-15T06:41:36;5.30;;;0.68;;
22628;SDS011;11481;53.694;9.910;2024-01-15T06:44:10;8.23;;;0.80;;
22628;SDS011;11481;53.694;9.910;2024-01-15T06:46:41;4.22;;;0.75;;
22628;SDS011;11481;53.694;9.910;2024-01-15T06:49:08;5.63;;;1.00;;
22628;SDS011;11481;53.694;9.910;2024-01-15T06:51:35;2.55;;;0.80;;
22628;SDS011;11481;53.694;9.910;2024-01-15T06:54:02;5.70;;;0.90;;
22628;SDS011;11481;53.694;9.910;2024-01-15T06:56:29;7.47;;;1.10;;
22628;SDS011;11481;53.694;9.910;2024-01-15T06:58:57;4.13;;;0.80;;
22628;SDS011;11481;53.694;9.910;2024-01-15T07:01:24;4.85;;;0.63;;
22628;SDS011;11481;53.694;9.910;2024-01-15T07:03:51;7.00;;;0.88;;
22628;SDS011;11481;53.694;9.910;2024-01-15T07:06:18;5.40;;;0.95;;
22628;SDS011;11481;53.694;9.910;2024-01-15T07:08:45;3.53;;;0.80;;
22628;SDS011;11481;53.694;9.910;2024-01-15T07:11:12;6.65;;;1.10;;
22628;SDS011;11481;53.694;9.910;2024-01-15T07:13:39;5.95;;;0.80;;
22628;SDS011;11481;53.694;9.910;2024-01-15T07:16:06;6.68;;;0.93;;
22628;SDS011;11481;53.694;9.910;2024-01-15T07:18:33;4.50;;;0.60;;
22628;SDS011;11481;53.694;9.910;2024-01-15T07:21:00;7.90;;;1.02;;
22628;SDS011;11481;53.694;9.910;2024-01-15T07:23:29;7.30;;;0.93;;
22628;SDS011;11481;53.694;9.910;2024-01-15T07:25:57;7.05;;;0.82;;
22628;SDS011;11481;53.694;9.910;2024-01-15T07:28:24;3.42;;;0.60;;
22628;SDS011;11481;53.694;9.910;2024-01-15T07:30:51;3.92;;;0.60;;
22628;SDS011;11481;53.694;9.910;2024-01-15T07:33:18;4.65;;;0.80;;
22628;SDS011;11481;53.694;9.910;2024-01-15T07:35:45;12.57;;;0.85;;
22628;SDS011;11481;53.694;9.910;2024-01-15T07:38:13;8.38;;;0.88;;
22628;SDS011;11481;53.694;9.910;2024-01-15T07:40:39;3.10;;;0.73;;
22628;SDS011;11481;53.694;9.910;2024-01-15T07:43:06;6.07;;;0.70;;
22628;SDS011;11481;53.694;9.910;2024-01-15T07:45:33;5.72;;;0.90;;
22628;SDS011;11481;53.694;9.910;2024-01-15T07:48:00;8.50;;;1.00;;
22628;SDS011;11481;53.694;9.910;2024-01-15T07:50:27;9.52;;;1.00;;
22628;SDS011;11481;53.694;9.910;2024-01-15T07:52:53;5.75;;;0.82;;
22628;SDS011;11481;53.694;9.910;2024-01-15T07:55:20;4.03;;;0.70;;
22628;SDS011;11481;53.694;9.910;2024-01-15T07:57:47;4.75;;;0.88;;
22628;SDS011;11481;53.694;9.910;2024-01-15T08:00:27;3.30;;;0.52;;
22628;SDS011;11481;53.694;9.910;2024-01-15T08:02:54;6.40;;;0.93;;
22628;SDS011;11481;53.694;9.910;2024-01-15T08:05:21;5.30;;;0.70;;
22628;SDS011;11481;53.694;9.910;2024-01-15T08:07:48;6.07;;;1.30;;
22628;SDS011;11481;53.694;9.910;2024-01-15T08:10:15;7.22;;;1.08;;
22628;SDS011;11481;53.694;9.910;2024-01-15T08:12:42;12.65;;;1.25;;
22628;SDS011;11481;53.694;9.910;2024-01-15T08:15:08;5.68;;;0.80;;
22628;SDS011;11481;53.694;9.910;2024-01-15T08:17:35;4.90;;;0.90;;
22628;SDS011;11481;53.694;9.910;2024-01-15T08:20:02;6.10;;;1.08;;
22628;SDS011;11481;53.694;9.910;2024-01-15T08:22:31;14.70;;;1.42;;
22628;SDS011;11481;53.694;9.910;2024-01-15T08:24:58;5.32;;;1.00;;
22628;SDS011;11481;53.694;9.910;2024-01-15T08:27:25;10.68;;;1.45;;
22628;SDS011;11481;53.694;9.910;2024-01-15T08:29:51;9.90;;;1.30;;
22628;SDS011;11481;53.694;9.910;2024-01-15T08:32:18;12.60;;;1.20;;
22628;SDS011;11481;53.694;9.910;2024-01-15T08:34:45;11.90;;;1.30;;
22628;SDS011;11481;53.694;9.910;2024-01-15T08:37:13;6.25;;;1.25;;
22628;SDS011;11481;53.694;9.910;2024-01-15T08:39:40;6.93;;;1.02;;
22628;SDS011;11481;53.694;9.910;2024-01-15T08:42:07;7.57;;;1.08;;
22628;SDS011;11481;53.694;9.910;2024-01-15T08:44:34;7.25;;;1.15;;
22628;SDS011;11481;53.694;9.910;2024-01-15T08:47:01;5.07;;;0.82;;
22628;SDS011;11481;53.694;9.910;2024-01-15T08:49:29;5.60;;;1.27;;
22628;SDS011;11481;53.694;9.910;2024-01-15T08:51:56;7.20;;;0.80;;
22628;SDS011;11481;53.694;9.910;2024-01-15T08:54:23;7.90;;;1.13;;
22628;SDS011;11481;53.694;9.910;2024-01-15T08:56:50;7.68;;;0.93;;
22628;SDS011;11481;53.694;9.910;2024-01-15T08:59:17;10.77;;;0.93;;
22628;SDS011;11481;53.694;9.910;2024-01-15T09:01:50;6.47;;;0.68;;
22628;SDS011;11481;53.694;9.910;2024-01-15T09:04:20;11.77;;;1.25;;
22628;SDS011;11481;53.694;9.910;2024-01-15T09:06:47;5.70;;;1.13;;
22628;SDS011;11481;53.694;9.910;2024-01-15T09:09:14;9.65;;;1.20;;
22628;SDS011;11481;53.694;9.910;2024-01-15T09:11:41;2.17;;;0.80;;
22628;SDS011;11481;53.694;9.910;2024-01-15T09:14:08;16.05;;;1.27;;
22628;SDS011;11481;53.694;9.910;2024-01-15T09:16:35;11.13;;;1.10;;
22628;SDS011;11481;53.694;9.910;2024-01-15T09:19:02;9.25;;;1.15;;
22628;SDS011;11481;53.694;9.910;2024-01-15T09:21:29;5.82;;;0.85;;
22628;SDS011;11481;53.694;9.910;2024-01-15T09:23:57;8.60;;;1.20;;
22628;SDS011;11481;53.694;9.910;2024-01-15T09:26:27;8.88;;;1.45;;
22628;SDS011;11481;53.694;9.910;2024-01-15T09:28:54;12.73;;;1.00;;
22628;SDS011;11481;53.694;9.910;2024-01-15T09:31:20;7.95;;;1.20;;
22628;SDS011;11481;53.694;9.910;2024-01-15T09:33:47;12.45;;;1.88;;
22628;SDS011;11481;53.694;9.910;2024-01-15T09:36:18;8.57;;;1.30;;
22628;SDS011;11481;53.694;9.910;2024-01-15T09:38:44;6.57;;;1.48;;
22628;SDS011;11481;53.694;9.910;2024-01-15T09:41:11;10.32;;;0.90;;
22628;SDS011;11481;53.694;9.910;2024-01-15T09:43:38;10.65;;;1.42;;
22628;SDS011;11481;53.694;9.910;2024-01-15T09:46:05;8.40;;;1.60;;
22628;SDS011;11481;53.694;9.910;2024-01-15T09:48:32;8.75;;;1.17;;
22628;SDS011;11481;53.694;9.910;2024-01-15T09:51:03;9.30;;;1.67;;
22628;SDS011;11481;53.694;9.910;2024-01-15T09:53:32;11.43;;;1.80;;
22628;SDS011;11481;53.694;9.910;2024-01-15T09:56:00;7.20;;;0.95;;
22628;SDS011;11481;53.694;9.910;2024-01-15T09:58:27;8.10;;;1.38;;
22628;SDS011;11481;53.694;9.910;2024-01-15T10:00:55;9.93;;;1.80;;
22628;SDS011;11481;53.694;9.910;2024-01-15T10:03:23;14.85;;;1.52;;
22628;SDS011;11481;53.694;9.910;2024-01-15T10:05:50;7.85;;;1.35;;
22628;SDS011;11481;53.694;9.910;2024-01-15T10:08:17;7.47;;;1.10;;
22628;SDS011;11481;53.694;9.910;2024-01-15T10:10:44;8.40;;;1.70;;
22628;SDS011;11481;53.694;9.910;2024-01-15T10:13:11;8.60;;;1.00;;
22628;SDS011;11481;53.694;9.910;2024-01-15T10:15:39;13.65;;;1.52;;
22628;SDS011;11481;53.694;9.910;2024-01-15T10:18:06;10.98;;;1.88;;
22628;SDS011;11481;53.694;9.910;2024-01-15T10:20:32;7.97;;;1.35;;
22628;SDS011;11481;53.694;9.910;2024-01-15T10:22:59;13.20;;;2.13;;
22628;SDS011;11481;53.694;9.910;2024-01-15T10:25:26;10.80;;;2.35;;
22628;SDS011;11481;53.694;9.910;2024-01-15T10:28:00;8.15;;;1.40;;
22628;SDS011;11481;53.694;9.910;2024-01-15T10:30:27;10.00;;;1.88;;
22628;SDS011;11481;53.694;9.910;2024-01-15T10:33:01;6.95;;;1.20;;
22628;SDS011;11481;53.694;9.910;2024-01-15T10:35:32;15.35;;;1.40;;
22628;SDS011;11481;53.694;9.910;2024-01-15T10:38:00;17.50;;;1.83;;
22628;SDS011;11481;53.694;9.910;2024-01-15T10:40:28;11.27;;;1.83;;
22628;SDS011;11481;53.694;9.910;2024-01-15T10:42:55;11.52;;;1.38;;
22628;SDS011;11481;53.694;9.910;2024-01-15T10:45:22;6.90;;;1.73;;
22628;SDS011;11481;53.694;9.910;2024-01-15T10:47:49;9.07;;;1.40;;
22628;SDS011;11481;53.694;9.910;2024-01-15T10:50:16;5.95;;;0.82;;
22628;SDS011;11481;53.694;9.910;2024-01-15T10:52:43;9.57;;;0.98;;
22628;SDS011;11481;53.694;9.910;2024-01-15T10:55:10;6.78;;;1.40;;
22628;SDS011;11481;53.694;9.910;2024-01-15T10:57:44;3.95;;;1.25;;
22628;SDS011;11481;53.694;9.910;2024-01-15T11:00:14;9.57;;;1.38;;
22628;SDS011;11481;53.694;9.910;2024-01-15T11:02:41;7.88;;;1.20;;
22628;SDS011;11481;53.694;9.910;2024-01-15T11:05:09;9.48;;;1.25;;
22628;SDS011;11481;53.694;9.910;2024-01-15T11:07:35;16.00;;;1.42;;
22628;SDS011;11481;53.694;9.910;2024-01-15T11:10:06;7.18;;;1.42;;
22628;SDS011;11481;53.694;9.910;2024-01-15T11:12:36;11.07;;;1.25;;
22628;SDS011;11481;53.694;9.910;2024-01-15T11:15:07;5.22;;;1.17;;
22628;SDS011;11481;53.694;9.910;2024-01-15T11:20:27;9.50;;;0.93;;
22628;SDS011;11481;53.694;9.910;2024-01-15T11:22:54;7.20;;;1.00;;
22628;SDS011;11481;53.694;9.910;2024-01-15T11:25:23;7.22;;;1.13;;
22628;SDS011;11481;53.694;9.910;2024-01-15T11:27:51;7.03;;;1.23;;
22628;SDS011;11481;53.694;9.910;2024-01-15T11:30:19;4.88;;;1.08;;
22628;SDS011;11481;53.694;9.910;2024-01-15T11:32:50;2.42;;;0.52;;
22628;SDS011;11481;53.694;9.910;2024-01-15T11:35:17;7.65;;;0.95;;
22628;SDS011;11481;53.694;9.910;2024-01-15T11:40:21;4.22;;;0.88;;
22628;SDS011;11481;53.694;9.910;2024-01-15T11:42:48;2.72;;;0.68;;
22628;SDS011;11481;53.694;9.910;2024-01-15T11:45:18;3.67;;;1.00;;
22628;SDS011;11481;53.694;9.910;2024-01-15T11:50:40;4.72;;;1.05;;
22628;SDS011;11481;53.694;9.910;2024-01-15T11:53:27;7.90;;;0.90;;
22628;SDS011;11481;53.694;9.910;2024-01-15T11:56:08;6.28;;;0.70;;
22628;SDS011;11481;53.694;9.910;2024-01-15T11:58:41;5.60;;;0.80;;
22628;SDS011;11481;53.694;9.910;2024-01-15T12:01:10;8.50;;;1.02;;
22628;SDS011;11481;53.694;9.910;2024-01-15T12:03:37;7.60;;;1.02;;
22628;SDS011;11481;53.694;9.910;2024-01-15T12:06:08;4.32;;;1.35;;
22628;SDS011;11481;53.694;9.910;2024-01-15T12:08:36;4.43;;;0.43;;
22628;SDS011;11481;53.694;9.910;2024-01-15T12:11:10;5.35;;;0.80;;
22628;SDS011;11481;53.694;9.910;2024-01-15T12:13:40;4.45;;;0.93;;
22628;SDS011;11481;53.694;9.910;2024-01-15T12:16:07;6.20;;;0.80;;
22628;SDS011;11481;53.694;9.910;2024-01-15T12:18:34;3.53;;;0.65;;
22628;SDS011;11481;53.694;9.910;2024-01-15T12:21:01;2.10;;;0.55;;
22628;SDS011;11481;53.694;9.910;2024-01-15T12:23:30;1.92;;;0.63;;
22628;SDS011;11481;53.694;9.910;2024-01-15T12:25:57;3.08;;;0.73;;
22628;SDS011;11481;53.694;9.910;2024-01-15T12:28:27;3.53;;;1.15;;
22628;SDS011;11481;53.694;9.910;2024-01-15T12:30:55;4.47;;;0.75;;
22628;SDS011;11481;53.694;9.910;2024-01-15T12:33:22;2.30;;;0.50;;
22628;SDS011;11481;53.694;9.910;2024-01-15T12:35:48;1.75;;;0.65;;
22628;SDS011;11481;53.694;9.910;2024-01-15T12:38:19;4.47;;;0.77;;
22628;SDS011;11481;53.694;9.910;2024-01-15T12:40:46;2.85;;;0.77;;
22628;SDS011;11481;53.694;9.910;2024-01-15T12:43:14;2.17;;;0.63;;
22628;SDS011;11481;53.694;9.910;2024-01-15T12:45:40;1.83;;;0.60;;
22628;SDS011;11481;53.694;9.910;2024-01-15T12:48:07;0.80;;;0.45;;
22628;SDS011;11481;53.694;9.910;2024-01-15T12:50:35;2.42;;;0.50;;
22628;SDS011;11481;53.694;9.910;2024-01-15T12:53:02;4.95;;;0.68;;
22628;SDS011;11481;53.694;9.910;2024-01-15T12:55:29;4.97;;;1.10;;
22628;SDS011;11481;53.694;9.910;2024-01-15T12:57:55;2.40;;;0.73;;
22628;SDS011;11481;53.694;9.910;2024-01-15T13:00:22;1.70;;;0.47;;
22628;SDS011;11481;53.694;9.910;2024-01-15T13:02:51;1.67;;;0.60;;
22628;SDS011;11481;53.694;9.910;2024-01-15T13:05:18;2.28;;;0.60;;
22628;SDS011;11481;53.694;9.910;2024-01-15T13:07:46;3.45;;;0.93;;
22628;SDS011;11481;53.694;9.910;2024-01-15T13:10:13;5.10;;;0.88;;
22628;SDS011;11481;53.694;9.910;2024-01-15T13:12:40;4.80;;;0.90;;
22628;SDS011;11481;53.694;9.910;2024-01-15T13:15:08;3.53;;;1.00;;
22628;SDS011;11481;53.694;9.910;2024-01-15T13:17:40;4.53;;;0.80;;
22628;SDS011;11481;53.694;9.910;2024-01-15T13:20:08;3.85;;;1.08;;
22628;SDS011;11481;53.694;9.910;2024-01-15T13:22:35;4.20;;;0.95;;
22628;SDS011;11481;53.694;9.910;2024-01-15T13:25:05;4.65;;;1.08;;
22628;SDS011;11481;53.694;9.910;2024-01-15T13:27:33;3.13;;;0.82;;
22628;SDS011;11481;53.694;9.910;2024-01-15T13:30:05;5.68;;;1.13;;
22628;SDS011;11481;53.694;9.910;2024-01-15T13:32:34;2.60;;;0.63;;
22628;SDS011;11481;53.694;9.910;2024-01-15T13:35:02;3.28;;;0.85;;
22628;SDS011;11481;53.694;9.910;2024-01-15T13:37:31;4.47;;;0.73;;
22628;SDS011;11481;53.694;9.910;2024-01-15T13:39:58;3.17;;;0.85;;
22628;SDS011;11481;53.694;9.910;2024-01-15T13:42:25;1.42;;;0.57;;
22628;SDS011;11481;53.694;9.910;2024-01-15T13:44:53;1.95;;;0.22;;
22628;SDS011;11481;53.694;9.910;2024-01-15T13:47:20;2.67;;;0.57;;
22628;SDS011;11481;53.694;9.910;2024-01-15T13:49:47;5.78;;;0.57;;
22628;SDS011;11481;53.694;9.910;2024-01-15T13:52:14;4.07;;;0.68;;
22628;SDS011;11481;53.694;9.910;2024-01-15T13:54:40;3.70;;;0.63;;
22628;SDS011;11481;53.694;9.910;2024-01-15T13:57:18;1.42;;;0.50;;
22628;SDS011;11481;53.694;9.910;2024-01-15T13:59:46;2.88;;;0.85;;
22628;SDS011;11481;53.694;9.910;2024-01-15T14:02:13;2.15;;;0.43;;
22628;SDS011;11481;53.694;9.910;2024-01-15T14:04:46;3.10;;;0.40;;
22628;SDS011;11481;53.694;9.910;2024-01-15T14:07:13;4.88;;;0.57;;
22628;SDS011;11481;53.694;9.910;2024-01-15T14:09:41;0.68;;;0.43;;
22628;SDS011;11481;53.694;9.910;2024-01-15T14:12:08;1.77;;;0.45;;
22628;SDS011;11481;53.694;9.910;2024-01-15T14:14:35;1.15;;;0.50;;
22628;SDS011;11481;53.694;9.910;2024-01-15T14:17:01;1.10;;;0.55;;
22628;SDS011;11481;53.694;9.910;2024-01-15T14:19:28;2.83;;;0.60;;
22628;SDS011;11481;53.694;9.910;2024-01-15T14:21:55;2.15;;;0.47;;
22628;SDS011;11481;53.694;9.910;2024-01-15T14:24:22;4.00;;;0.60;;
22628;SDS011;11481;53.694;9.910;2024-01-15T14:26:49;1.45;;;0.68;;
22628;SDS011;11481;53.694;9.910;2024-01-15T14:29:16;3.28;;;0.60;;
22628;SDS011;11481;53.694;9.910;2024-01-15T14:31:44;4.03;;;0.50;;
22628;SDS011;11481;53.694;9.910;2024-01-15T14:34:12;2.00;;;0.47;;
22628;SDS011;11481;53.694;9.910;2024-01-15T14:36:39;1.98;;;0.50;;
22628;SDS011;11481;53.694;9.910;2024-01-15T14:39:07;2.75;;;0.50;;
22628;SDS011;11481;53.694;9.910;2024-01-15T14:41:35;2.60;;;0.70;;
22628;SDS011;11481;53.694;9.910;2024-01-15T14:44:02;4.18;;;0.70;;
22628;SDS011;11481;53.694;9.910;2024-01-15T14:46:29;2.95;;;0.65;;
22628;SDS011;11481;53.694;9.910;2024-01-15T14:48:57;2.97;;;0.52;;
22628;SDS011;11481;53.694;9.910;2024-01-15T14:51:25;1.55;;;0.63;;
22628;SDS011;11481;53.694;9.910;2024-01-15T14:53:52;2.97;;;0.77;;